Terminal Aerodrome Forecast
Issued by NWS Wilmington, NC

Home | Current Version | Previous Version | Text Only | Print | Product List | Glossary On
Versions: 1 2 3 4 5 6 7 8 9 10 11 12 13 14 15 16 17 18 19 20 21 22 23 24 25 26 27
045
FTUS42 KILM 060531
TAFMYR
TAF
KMYR 060531Z 0606/0706 03003KT P6SM SKC
     FM061300 03008KT P6SM SCT100 BKN250
     FM062100 03010KT P6SM SCT035 BKN070
     FM070300 01013G20KT 6SM -RA SCT020 OVC040
      AMD LTD TO CLD VIS AND WIND TIL 061100=

USA.gov is the U.S. government's official web portal to all federal, state and local government web resources and services.